Offutt Lake, Washington
Current Conditions -  °F | °C
As of 9:54 PM on Sunday 21 Dec 2014 (Local Time) from KOLM Reporting Station
Light Rain Light Rain  
Wind Chill: 47°   Ceiling: 4500
Heat Index: 49°   Visibility: 7mi
Dew Point: 47°   Wind: 5mph
Humidity: 93%   Direction: 210°SSW
Pressure: 30.13"   Gusts: NA
Location:  46.9755°N, 122.872°W
Report Text: KOLM 220554Z AUTO 21004KT 7SM -RA FEW038 BKN045 OVC065 09/08 A3013 RMK AO2 RAB20 SLP201 P0004 60004 T00940083 10106 20083 53012
Loading
Personal Weather Stations






























Interactive Weather Map New forecast layout! Learn more

10-Day Weather Forecast

Advertisements
Track Severe Weather on mobile